Time;durP1;ratioP1;P1;durP2;ratioP2;P2;SDS_P1;SDS_P2;PMS_P1;PMS_P2;Temp;Humidity;BMP_temperature;BMP_pressure;BME280_temperature;BME280_humidity;BME280_pressure;Samples;Min_cycle;Max_cycle;Signal;HPM_P1;HPM_P2
2021/12/12 00:01:03;;;;;;;66.38;29.50;;;3.90;99.90;;;;;;5076486;28;20050;-68
2021/12/12 00:03:39;;;;;;;61.63;26.75;;;3.90;99.90;;;;;;5093534;28;20469;-68
2021/12/12 00:06:14;;;;;;;60.25;26.58;;;4.00;99.90;;;;;;5076973;28;20020;-68
2021/12/12 00:08:42;;;;;;;58.95;26.05;;;4.00;99.90;;;;;;5093374;28;20431;-68
2021/12/12 00:11:12;;;;;;;61.35;26.33;;;4.00;99.90;;;;;;5076086;28;20035;-68
2021/12/12 00:13:44;;;;;;;53.80;23.90;;;4.00;99.90;;;;;;5076108;28;20059;-68
2021/12/12 00:16:10;;;;;;;52.65;22.67;;;4.00;99.90;;;;;;5094516;28;20023;-68
2021/12/12 00:18:36;;;;;;;44.38;21.20;;;4.00;99.90;;;;;;5075959;28;20028;-68
2021/12/12 00:21:03;;;;;;;54.03;21.23;;;4.10;99.90;;;;;;5092901;28;20027;-67
2021/12/12 00:23:29;;;;;;;45.10;21.17;;;4.10;99.90;;;;;;5092828;28;20389;-68
2021/12/12 00:25:57;;;;;;;50.97;20.60;;;4.10;99.90;;;;;;5092828;28;20017;-68
2021/12/12 00:28:23;;;;;;;50.70;19.67;;;4.00;99.90;;;;;;5094290;28;20024;-68
2021/12/12 00:30:51;;;;;;;36.72;18.80;;;4.00;99.90;;;;;;5093077;28;20054;-68
2021/12/12 00:33:18;;;;;;;41.45;19.67;;;4.10;99.90;;;;;;5093947;28;20059;-69
2021/12/12 00:35:44;;;;;;;43.47;18.70;;;4.00;99.90;;;;;;5093311;28;20493;-69
2021/12/12 00:38:16;;;;;;;39.08;17.00;;;4.00;99.90;;;;;;5093191;28;20052;-68
2021/12/12 00:40:47;;;;;;;44.67;18.02;;;4.10;99.90;;;;;;5093005;28;20020;-68
2021/12/12 00:43:19;;;;;;;35.65;17.27;;;4.00;99.90;;;;;;5075740;28;20024;-68
2021/12/12 00:45:45;;;;;;;35.13;16.80;;;4.00;99.90;;;;;;5094362;28;20062;-68
2021/12/12 00:48:11;;;;;;;35.90;15.95;;;4.00;99.90;;;;;;5094333;28;20047;-68
2021/12/12 00:50:40;;;;;;;47.05;17.10;;;4.10;99.90;;;;;;5093287;28;20358;-68
2021/12/12 00:53:09;;;;;;;33.63;15.68;;;4.10;99.90;;;;;;5094059;28;20020;-69
2021/12/12 00:55:38;;;;;;;35.53;15.35;;;4.00;99.90;;;;;;5092765;28;20036;-68
2021/12/12 00:58:14;;;;;;;34.22;15.00;;;4.00;99.90;;;;;;5092107;28;20072;-69
2021/12/12 01:00:48;;;;;;;35.78;15.07;;;4.00;99.90;;;;;;5094162;28;20134;-68
2021/12/12 01:03:16;;;;;;;36.78;13.85;;;4.00;99.90;;;;;;5092314;28;20024;-68
2021/12/12 01:05:46;;;;;;;35.15;14.05;;;4.10;99.90;;;;;;5094092;28;20055;-67
2021/12/12 01:08:14;;;;;;;42.70;14.82;;;4.00;99.90;;;;;;5094075;28;20035;-68
2021/12/12 01:11:03;;;;;;;35.25;13.82;;;4.00;99.90;;;;;;5075694;28;20024;-68
2021/12/12 01:13:30;;;;;;;28.45;13.60;;;4.00;99.90;;;;;;5092774;28;20028;-68
2021/12/12 01:16:04;;;;;;;31.45;13.65;;;4.00;99.90;;;;;;5092191;28;20118;-68
2021/12/12 01:18:34;;;;;;;28.45;12.98;;;4.00;99.90;;;;;;5092473;28;20131;-68
2021/12/12 01:21:11;;;;;;;28.88;12.32;;;4.00;99.90;;;;;;5092732;28;20122;-68
2021/12/12 01:23:45;;;;;;;32.72;12.95;;;4.00;99.90;;;;;;5093931;28;20087;-68
2021/12/12 01:26:11;;;;;;;26.73;12.35;;;4.00;99.90;;;;;;5093361;28;20047;-68
2021/12/12 01:28:42;;;;;;;29.70;12.73;;;4.00;99.90;;;;;;5092049;28;20074;-68
2021/12/12 01:31:12;;;;;;;30.88;12.38;;;4.00;99.90;;;;;;5092047;28;20024;-68
2021/12/12 01:33:38;;;;;;;26.42;12.15;;;4.00;99.90;;;;;;5092405;28;20024;-68
2021/12/12 01:36:08;;;;;;;30.60;11.73;;;4.00;99.90;;;;;;5093843;28;20461;-68
2021/12/12 01:38:55;;;;;;;29.58;12.27;;;4.00;99.90;;;;;;5075531;28;20111;-68
2021/12/12 01:41:29;;;;;;;25.50;10.38;;;4.00;99.90;;;;;;5077811;28;20035;-68
2021/12/12 01:44:01;;;;;;;27.92;10.75;;;4.00;99.90;;;;;;5091905;28;20024;-68
2021/12/12 01:46:32;;;;;;;24.77;9.95;;;4.00;99.90;;;;;;5091925;28;20111;-67
2021/12/12 01:49:05;;;;;;;22.30;9.93;;;4.00;99.90;;;;;;5093408;28;20032;-68
2021/12/12 01:51:31;;;;;;;20.83;9.02;;;4.00;99.90;;;;;;5092199;28;20058;-68
2021/12/12 01:54:02;;;;;;;22.60;8.63;;;4.10;99.90;;;;;;5075086;28;20024;-68
2021/12/12 01:56:34;;;;;;;17.33;9.02;;;4.10;99.90;;;;;;5092183;28;20115;-68
2021/12/12 01:59:05;;;;;;;20.20;8.80;;;4.10;99.90;;;;;;5074923;28;20036;-66
2021/12/12 02:01:37;;;;;;;26.02;8.82;;;4.10;99.90;;;;;;5092088;28;20028;-67
2021/12/12 02:04:12;;;;;;;21.10;8.48;;;4.00;99.90;;;;;;5091757;28;20154;-66
2021/12/12 02:06:39;;;;;;;24.60;8.18;;;4.10;99.90;;;;;;5097207;28;20016;-67
2021/12/12 02:09:06;;;;;;;23.77;7.90;;;4.10;99.90;;;;;;5097125;28;20028;-68
2021/12/12 02:11:33;;;;;;;17.23;7.93;;;4.10;99.90;;;;;;5095308;28;20054;-68
2021/12/12 02:14:08;;;;;;;24.83;8.32;;;4.10;99.90;;;;;;5095269;28;20162;-68
2021/12/12 02:16:36;;;;;;;14.98;7.38;;;4.10;99.90;;;;;;5095607;28;20059;-68
2021/12/12 02:19:02;;;;;;;18.27;7.28;;;4.10;99.90;;;;;;5078453;28;20028;-68
2021/12/12 02:21:37;;;;;;;17.75;7.38;;;4.10;99.90;;;;;;5078250;28;20078;-69
2021/12/12 02:35:16;;;;;;;15.93;6.28;;;4.10;99.90;;;;;;5094932;28;20099;-68
2021/12/12 02:37:43;;;;;;;19.60;6.20;;;4.10;99.90;;;;;;5094725;28;20028;-68
2021/12/12 02:40:14;;;;;;;16.05;6.47;;;4.20;99.90;;;;;;5096326;28;20029;-68
2021/12/12 02:42:40;;;;;;;18.30;6.38;;;4.20;99.90;;;;;;5095071;28;20016;-68
2021/12/12 02:45:08;;;;;;;20.77;7.45;;;4.20;99.90;;;;;;5078167;28;20119;-68
2021/12/12 02:47:35;;;;;;;28.15;7.70;;;4.30;99.90;;;;;;5094626;28;20036;-68
2021/12/12 02:50:13;;;;;;;19.13;7.13;;;4.30;99.90;;;;;;5094558;28;20384;-68
2021/12/12 02:52:41;;;;;;;16.48;6.25;;;4.20;99.90;;;;;;5094927;28;20028;-68
2021/12/12 02:55:15;;;;;;;18.80;5.50;;;4.30;99.90;;;;;;5094484;28;20028;-68
2021/12/12 02:57:41;;;;;;;13.15;5.63;;;4.40;99.90;;;;;;5094478;28;20131;-68
2021/12/12 03:00:12;;;;;;;12.20;5.32;;;4.30;99.90;;;;;;5094680;28;20380;-68
2021/12/12 03:02:45;;;;;;;21.40;6.25;;;4.40;99.90;;;;;;5095044;28;20027;-68
2021/12/12 03:05:11;;;;;;;;;;;4.40;99.90;;;;;;5078936;28;20055;-68
2021/12/12 03:07:37;;;;;;;15.85;5.32;;;4.50;99.90;;;;;;5077888;28;19965;-68
2021/12/12 03:10:09;;;;;;;15.63;5.38;;;4.50;99.90;;;;;;5077324;28;20115;-68
2021/12/12 03:12:36;;;;;;;18.67;5.85;;;4.50;99.90;;;;;;5094511;28;20027;-68
2021/12/12 03:15:21;;;;;;;11.75;5.13;;;4.50;99.90;;;;;;5095918;28;20104;-68
2021/12/12 03:17:49;;;;;;;13.32;5.90;;;4.40;99.90;;;;;;5094376;28;20039;-68
2021/12/12 03:20:27;;;;;;;14.90;5.93;;;4.50;99.90;;;;;;5077070;28;20023;-68
2021/12/12 03:23:04;;;;;;;15.10;5.13;;;4.50;99.90;;;;;;5095748;28;20016;-68
2021/12/12 03:25:35;;;;;;;17.70;5.35;;;4.50;99.90;;;;;;5095172;28;20473;-68
2021/12/12 03:28:01;;;;;;;14.52;5.20;;;4.60;99.90;;;;;;5094151;28;20472;-68
2021/12/12 03:30:27;;;;;;;12.15;5.30;;;4.50;99.90;;;;;;5094192;28;20078;-68
2021/12/12 03:32:53;;;;;;;13.93;5.40;;;4.50;99.90;;;;;;5093707;28;20119;-68
2021/12/12 03:35:19;;;;;;;12.27;5.28;;;4.50;99.90;;;;;;5094027;28;20460;-68
2021/12/12 03:37:45;;;;;;;21.63;4.90;;;4.50;99.90;;;;;;5095403;28;20116;-68
2021/12/12 03:40:17;;;;;;;10.70;5.07;;;4.60;99.90;;;;;;5076792;28;20435;-68
2021/12/12 03:42:44;;;;;;;19.15;4.85;;;4.60;99.90;;;;;;5095390;28;20023;-68
2021/12/12 03:45:10;;;;;;;15.23;4.80;;;4.60;99.90;;;;;;5095300;28;20020;-68
2021/12/12 03:47:44;;;;;;;15.00;4.75;;;4.60;99.90;;;;;;5093444;28;20023;-69
2021/12/12 03:50:20;;;;;;;15.38;5.07;;;4.60;99.90;;;;;;5093741;28;20112;-68
2021/12/12 03:52:46;;;;;;;13.00;4.70;;;4.60;99.90;;;;;;5093716;28;20027;-67
2021/12/12 03:55:13;;;;;;;12.85;4.70;;;4.70;99.90;;;;;;5094858;28;20024;-68
2021/12/12 03:57:39;;;;;;;11.98;4.95;;;4.70;99.90;;;;;;5092991;28;20044;-68
2021/12/12 04:00:18;;;;;;;12.25;5.07;;;4.60;99.90;;;;;;5076332;28;20027;-68
2021/12/12 04:02:44;;;;;;;12.88;5.72;;;4.60;99.90;;;;;;5093165;28;20020;-68
2021/12/12 04:05:10;;;;;;;13.98;4.97;;;4.60;99.90;;;;;;5093165;28;20129;-68
2021/12/12 04:07:35;;;;;;;12.48;4.72;;;4.60;99.90;;;;;;5076216;28;20028;-67
2021/12/12 04:10:02;;;;;;;16.67;5.35;;;4.60;99.90;;;;;;5094885;28;20028;-68
2021/12/12 04:12:28;;;;;;;14.48;4.90;;;4.60;99.90;;;;;;5093366;28;20107;-68
2021/12/12 04:14:56;;;;;;;16.42;5.03;;;4.60;99.90;;;;;;5094237;28;20101;-67
2021/12/12 04:17:25;;;;;;;16.67;5.20;;;4.60;99.90;;;;;;5093230;28;20030;-68
2021/12/12 04:19:55;;;;;;;12.27;4.78;;;4.70;99.90;;;;;;5092876;28;20119;-68
2021/12/12 04:22:21;;;;;;;16.05;5.65;;;4.60;99.90;;;;;;5092894;28;20024;-68
2021/12/12 04:24:49;;;;;;;11.70;4.50;;;4.60;99.90;;;;;;5094580;28;20024;-67
2021/12/12 04:27:17;;;;;;;14.52;5.35;;;4.60;99.90;;;;;;5092594;28;20029;-68
2021/12/12 04:29:45;;;;;;;17.92;5.53;;;4.60;99.90;;;;;;5076218;28;20028;-68
2021/12/12 04:32:17;;;;;;;14.73;5.22;;;4.60;99.90;;;;;;5094255;28;20016;-68
2021/12/12 04:34:47;;;;;;;20.95;4.90;;;4.60;99.90;;;;;;5094188;28;20427;-68
2021/12/12 04:37:15;;;;;;;16.35;5.30;;;4.60;99.90;;;;;;5094072;28;20028;-68
2021/12/12 04:39:47;;;;;;;14.15;4.95;;;4.60;99.90;;;;;;5092657;28;20354;-68
2021/12/12 04:42:16;;;;;;;18.33;5.38;;;4.60;99.90;;;;;;5092572;28;20024;-68
2021/12/12 04:44:45;;;;;;;16.65;5.28;;;4.60;99.90;;;;;;5093251;28;20425;-68
2021/12/12 04:49:56;;;;;;;14.82;4.78;;;4.60;99.90;;;;;;5071629;28;20437;-69
2021/12/12 04:52:32;;;;;;;18.02;6.28;;;4.60;99.90;;;;;;5069607;28;20029;-68
2021/12/12 04:55:06;;;;;;;15.75;5.00;;;4.60;99.90;;;;;;5069500;28;20051;-69
2021/12/12 04:57:38;;;;;;;15.57;5.15;;;4.60;99.90;;;;;;5069841;28;20380;-68
2021/12/12 05:00:14;;;;;;;14.18;4.88;;;4.60;99.90;;;;;;5070258;28;20027;-68
2021/12/12 05:05:42;;;;;;;17.48;5.00;;;4.60;99.90;;;;;;5071690;28;20383;-68
2021/12/12 05:08:15;;;;;;;22.02;6.70;;;4.60;99.90;;;;;;5069606;28;20573;-68
2021/12/12 05:10:47;;;;;;;13.25;5.30;;;4.60;99.90;;;;;;5071068;28;20025;-68
2021/12/12 05:13:18;;;;;;;18.65;6.55;;;4.60;99.90;;;;;;5069510;28;20119;-68
2021/12/12 05:15:48;;;;;;;20.88;6.88;;;4.60;99.90;;;;;;5071222;28;20108;-68
2021/12/12 05:18:26;;;;;;;17.35;5.88;;;4.60;99.90;;;;;;5069367;28;20031;-68
2021/12/12 05:21:05;;;;;;;16.00;6.10;;;4.50;99.90;;;;;;5070829;28;20096;-69
2021/12/12 05:23:32;;;;;;;16.23;5.60;;;4.60;99.90;;;;;;5070978;28;20474;-69
2021/12/12 05:26:04;;;;;;;17.90;5.78;;;4.60;99.90;;;;;;5069566;28;20032;-68
2021/12/12 05:28:35;;;;;;;17.88;5.22;;;4.70;99.90;;;;;;5070663;28;20021;-68
2021/12/12 05:31:02;;;;;;;17.25;5.50;;;4.70;99.90;;;;;;5070632;28;20016;-68
2021/12/12 05:33:29;;;;;;;16.05;5.82;;;4.70;99.90;;;;;;5070815;28;20178;-68
2021/12/12 05:35:56;;;;;;;25.90;6.05;;;4.70;99.90;;;;;;5069035;28;20127;-68
2021/12/12 05:38:23;;;;;;;21.50;5.55;;;4.70;99.90;;;;;;5070216;28;20072;-68
2021/12/12 05:40:51;;;;;;;11.68;5.15;;;4.70;99.90;;;;;;5069262;28;20032;-68
2021/12/12 05:43:17;;;;;;;21.02;5.40;;;4.70;99.90;;;;;;5069556;28;20480;-68
2021/12/12 05:45:45;;;;;;;19.00;5.80;;;4.70;99.90;;;;;;5069163;28;20043;-68
2021/12/12 05:48:11;;;;;;;17.45;5.03;;;4.70;99.90;;;;;;5052093;28;20028;-68
2021/12/12 05:50:39;;;;;;;18.88;5.50;;;4.70;99.90;;;;;;5068728;28;20025;-68
2021/12/12 05:53:07;;;;;;;12.68;5.60;;;4.80;99.90;;;;;;5068673;28;20201;-67
2021/12/12 05:55:35;;;;;;;17.40;5.45;;;4.80;99.90;;;;;;5068629;28;20124;-68
2021/12/12 05:58:04;;;;;;;19.67;5.80;;;4.90;99.90;;;;;;5068618;28;20032;-67
2021/12/12 06:00:34;;;;;;;16.50;5.15;;;4.90;99.90;;;;;;5052153;28;20028;-69
2021/12/12 06:03:01;;;;;;;26.92;5.60;;;4.90;99.90;;;;;;5052151;28;20544;-69
2021/12/12 06:05:27;;;;;;;21.00;5.50;;;4.90;99.90;;;;;;5069423;28;20139;-69
2021/12/12 06:07:55;;;;;;;19.80;5.72;;;5.00;99.90;;;;;;5070157;28;20059;-68
2021/12/12 06:10:22;;;;;;;14.57;5.38;;;5.00;99.90;;;;;;5069809;28;20078;-69
2021/12/12 06:12:49;;;;;;;17.73;5.07;;;5.00;99.90;;;;;;5069008;28;20016;-68
2021/12/12 06:15:17;;;;;;;15.90;4.43;;;5.00;99.90;;;;;;5048125;28;20433;-68
2021/12/12 06:17:46;;;;;;;17.95;5.25;;;5.00;99.90;;;;;;5055730;28;20034;-68
2021/12/12 06:20:14;;;;;;;21.08;4.75;;;5.00;99.90;;;;;;5055292;28;20028;-68
2021/12/12 06:22:40;;;;;;;12.65;4.70;;;5.00;99.90;;;;;;5056167;28;20021;-69
2021/12/12 06:25:07;;;;;;;16.08;5.72;;;5.00;99.90;;;;;;5056521;28;20036;-68
2021/12/12 06:27:33;;;;;;;20.60;5.40;;;5.00;99.90;;;;;;5054815;28;20389;-68
2021/12/12 06:29:58;;;;;;;15.65;4.65;;;5.00;99.90;;;;;;5056519;28;20028;-67
2021/12/12 06:32:24;;;;;;;12.20;5.38;;;5.10;99.90;;;;;;5056449;28;20025;-66
2021/12/12 06:34:56;;;;;;;17.42;5.28;;;5.10;99.90;;;;;;5038119;28;20029;-68
2021/12/12 06:37:22;;;;;;;13.80;4.72;;;5.10;99.90;;;;;;5038289;28;20025;-68
2021/12/12 06:39:49;;;;;;;17.33;5.22;;;5.10;99.90;;;;;;5056316;28;20029;-69
2021/12/12 06:42:16;;;;;;;16.08;5.35;;;5.10;99.90;;;;;;5038475;28;20370;-67
2021/12/12 06:44:42;;;;;;;19.48;5.07;;;5.00;99.90;;;;;;5054409;28;20120;-68
2021/12/12 06:47:12;;;;;;;18.25;4.97;;;5.00;99.90;;;;;;5037796;28;20112;-67
2021/12/12 06:49:38;;;;;;;19.65;6.40;;;5.00;99.90;;;;;;5056185;28;20091;-68
2021/12/12 06:52:06;;;;;;;23.48;6.13;;;5.00;99.90;;;;;;5037766;28;20462;-69
2021/12/12 06:54:32;;;;;;;15.57;5.57;;;5.00;99.90;;;;;;5054274;28;20046;-68
2021/12/12 06:57:02;;;;;;;16.25;5.50;;;5.00;99.90;;;;;;5055737;28;20025;-68
2021/12/12 06:59:31;;;;;;;18.98;5.45;;;5.00;99.90;;;;;;5054844;28;20355;-69
2021/12/12 07:01:58;;;;;;;18.33;5.75;;;5.10;99.90;;;;;;5055936;28;20017;-68
2021/12/12 07:04:25;;;;;;;15.70;5.97;;;5.00;99.90;;;;;;5055234;28;20047;-68
2021/12/12 07:06:57;;;;;;;21.17;5.97;;;5.00;99.90;;;;;;5037475;28;20441;-68
2021/12/12 07:09:23;;;;;;;19.92;6.15;;;5.10;99.90;;;;;;5054037;28;20021;-68
2021/12/12 07:11:49;;;;;;;21.10;6.03;;;5.10;99.90;;;;;;5055479;28;20017;-68
2021/12/12 07:14:16;;;;;;;14.82;5.97;;;5.10;99.90;;;;;;5055420;28;20119;-68
2021/12/12 07:16:45;;;;;;;21.98;6.22;;;5.20;99.90;;;;;;5054232;28;20020;-68
2021/12/12 07:19:15;;;;;;;10.82;5.32;;;5.20;99.90;;;;;;5037233;28;20029;-68
2021/12/12 07:21:42;;;;;;;19.50;5.85;;;5.20;99.90;;;;;;5054440;28;20021;-68
2021/12/12 07:24:08;;;;;;;25.50;6.57;;;5.20;99.90;;;;;;5054319;28;20035;-68
2021/12/12 07:26:33;;;;;;;17.63;6.72;;;5.20;99.90;;;;;;5053889;28;20107;-68
2021/12/12 07:29:01;;;;;;;22.15;6.78;;;5.20;99.90;;;;;;5054598;28;20103;-67
2021/12/12 07:31:29;;;;;;;24.75;7.50;;;5.20;99.90;;;;;;5055370;28;20104;-67
2021/12/12 07:33:58;;;;;;;29.23;8.05;;;5.20;99.90;;;;;;5053496;28;20031;-67
2021/12/12 07:36:25;;;;;;;21.30;7.47;;;5.20;99.90;;;;;;5055236;28;20398;-67
2021/12/12 07:38:55;;;;;;;18.02;6.80;;;5.20;99.90;;;;;;5036673;28;20116;-67
2021/12/12 07:41:24;;;;;;;19.92;7.63;;;5.20;99.90;;;;;;5054857;28;20032;-67
2021/12/12 07:43:50;;;;;;;21.35;7.03;;;5.20;99.90;;;;;;5053658;28;20028;-67
2021/12/12 07:46:17;;;;;;;22.80;8.40;;;5.20;99.90;;;;;;5053835;28;20025;-67
2021/12/12 07:48:44;;;;;;;15.50;7.30;;;5.20;99.90;;;;;;5054920;28;20021;-67
2021/12/12 07:51:11;;;;;;;15.60;7.80;;;5.20;99.90;;;;;;5053117;28;20024;-67
2021/12/12 07:53:37;;;;;;;23.50;7.60;;;5.20;99.90;;;;;;5037310;28;20472;-67
2021/12/12 07:56:03;;;;;;;22.88;7.13;;;5.20;99.90;;;;;;5053403;28;20037;-67
2021/12/12 07:58:29;;;;;;;22.02;8.75;;;5.20;99.90;;;;;;5054517;28;20460;-68
2021/12/12 08:00:58;;;;;;;21.15;8.18;;;5.20;99.90;;;;;;5054382;28;20021;-67
2021/12/12 08:03:31;;;;;;;24.08;8.05;;;5.20;99.90;;;;;;5053279;28;20119;-68
2021/12/12 08:05:59;;;;;;;19.10;7.78;;;5.20;99.90;;;;;;5053249;28;20029;-67
2021/12/12 08:08:29;;;;;;;22.63;8.35;;;5.20;99.90;;;;;;5054365;28;20466;-67
2021/12/12 08:10:57;;;;;;;18.60;7.97;;;5.20;99.90;;;;;;5054332;28;20036;-67
2021/12/12 08:13:23;;;;;;;17.48;7.05;;;5.20;99.90;;;;;;5052861;28;20017;-67
2021/12/12 08:15:49;;;;;;;19.85;7.72;;;5.30;99.90;;;;;;5054509;28;20024;-66
2021/12/12 08:18:18;;;;;;;15.90;7.63;;;5.30;99.90;;;;;;5052670;28;20444;-66
2021/12/12 08:20:46;;;;;;;16.17;6.80;;;5.30;99.90;;;;;;5053970;28;20025;-66
2021/12/12 08:23:14;;;;;;;15.07;7.80;;;5.30;99.90;;;;;;5054013;28;20025;-66
2021/12/12 08:25:40;;;;;;;20.90;8.10;;;5.40;99.90;;;;;;5053151;28;20028;-66
2021/12/12 08:28:06;;;;;;;12.98;7.63;;;5.40;99.90;;;;;;5054287;28;20025;-66
2021/12/12 08:30:34;;;;;;;10.50;5.75;;;5.40;99.90;;;;;;5053718;28;20028;-66
2021/12/12 08:33:00;;;;;;;14.85;6.53;;;5.40;99.90;;;;;;5035735;28;20425;-66
2021/12/12 08:35:28;;;;;;;18.00;6.72;;;5.50;99.90;;;;;;5053694;28;20024;-66
2021/12/12 08:37:56;;;;;;;12.77;6.53;;;5.50;99.90;;;;;;5053813;28;20465;-66
2021/12/12 08:40:27;;;;;;;13.30;6.43;;;5.50;99.90;;;;;;5053783;28;20506;-66
2021/12/12 08:42:55;;;;;;;8.45;5.60;;;5.50;99.90;;;;;;5052881;28;20031;-66
2021/12/12 08:45:26;;;;;;;14.00;5.95;;;5.50;99.90;;;;;;5053466;28;20116;-66
2021/12/12 08:47:54;;;;;;;10.38;5.63;;;5.50;99.90;;;;;;5053814;28;20024;-66
2021/12/12 08:50:25;;;;;;;9.38;5.57;;;5.60;99.90;;;;;;5052233;28;20021;-71
2021/12/12 08:52:52;;;;;;;11.27;5.78;;;5.50;99.90;;;;;;5035905;28;20021;-70
2021/12/12 08:55:23;;;;;;;9.60;5.22;;;5.60;99.90;;;;;;5052178;28;20021;-70
2021/12/12 08:58:04;;;;;;;9.45;4.97;;;5.60;99.90;;;;;;5052514;28;20032;-71
2021/12/12 09:00:36;;;;;;;12.32;6.47;;;5.60;99.90;;;;;;5053931;28;20025;-70
2021/12/12 09:03:03;;;;;;;9.57;4.72;;;5.60;99.90;;;;;;5052123;28;20119;-71
2021/12/12 09:05:33;;;;;;;9.05;5.13;;;5.60;99.90;;;;;;5051983;28;20112;-70
2021/12/12 09:08:10;;;;;;;11.05;5.13;;;5.60;99.90;;;;;;5053300;28;20025;-70
2021/12/12 09:10:43;;;;;;;12.13;4.80;;;5.60;99.90;;;;;;5052390;28;20032;-70
2021/12/12 09:13:16;;;;;;;13.13;5.40;;;5.60;99.90;;;;;;5052764;28;20045;-71
2021/12/12 09:15:48;;;;;;;8.43;4.72;;;5.60;99.90;;;;;;5035453;28;20025;-71
2021/12/12 09:18:30;;;;;;;9.75;5.65;;;5.60;99.90;;;;;;5053205;28;20543;-70
2021/12/12 09:21:06;;;;;;;14.60;6.40;;;5.70;99.90;;;;;;5052314;28;20021;-70
2021/12/12 09:23:37;;;;;;;15.00;5.13;;;5.70;99.90;;;;;;5035483;28;20116;-70
2021/12/12 09:26:07;;;;;;;9.60;5.15;;;5.70;99.90;;;;;;5053419;28;20016;-71
2021/12/12 09:28:53;;;;;;;13.68;5.35;;;5.70;99.90;;;;;;5035162;28;20021;-71
2021/12/12 09:31:28;;;;;;;16.30;6.20;;;5.70;99.90;;;;;;5052099;28;20063;-71
2021/12/12 09:33:59;;;;;;;12.10;5.70;;;5.70;99.90;;;;;;5053305;28;20043;-70
2021/12/12 09:36:32;;;;;;;11.60;6.28;;;5.70;99.90;;;;;;5035225;28;20122;-70
2021/12/12 09:39:05;;;;;;;11.48;6.68;;;5.70;99.90;;;;;;5051773;28;20040;-71
2021/12/12 09:41:56;;;;;;;13.68;6.40;;;5.80;99.90;;;;;;5053196;28;20021;-71
2021/12/12 09:44:50;;;;;;;10.85;6.53;;;5.80;99.90;;;;;;5037723;28;20025;-70
2021/12/12 09:47:58;;;;;;;11.88;6.32;;;5.90;99.90;;;;;;5037260;28;20021;-71
2021/12/12 09:51:20;;;;;;;14.20;6.97;;;5.90;99.90;;;;;;5053664;28;20021;-71
2021/12/12 09:54:15;;;;;;;12.50;6.70;;;5.90;99.90;;;;;;5055548;28;20167;-70
2021/12/12 09:57:04;;;;;;;10.68;6.32;;;6.00;99.90;;;;;;5056552;28;20013;-70
2021/12/12 09:59:48;;;;;;;10.27;6.25;;;6.00;99.90;;;;;;5055332;28;20492;-71
2021/12/12 10:02:30;;;;;;;;;;;6.00;99.90;;;;;;5055723;28;20025;-70
2021/12/12 10:05:21;;;;;;;10.65;6.70;;;6.00;99.90;;;;;;5071838;28;20007;-71
2021/12/12 10:08:12;;;;;;;12.05;6.63;;;6.00;99.90;;;;;;5056438;28;20432;-70
2021/12/12 10:11:03;;;;;;;12.70;7.95;;;6.00;99.90;;;;;;5039053;28;20119;-70
2021/12/12 10:13:53;;;;;;;13.63;7.57;;;6.10;99.90;;;;;;5055501;28;20376;-71
2021/12/12 10:16:41;;;;;;;14.45;7.53;;;6.10;99.90;;;;;;5056202;28;20017;-71
2021/12/12 10:19:29;;;;;;;15.05;7.18;;;6.10;99.90;;;;;;5038329;28;20021;-71
2021/12/12 10:22:11;;;;;;;12.07;7.40;;;6.10;99.90;;;;;;5056711;28;20194;-71
2021/12/12 10:24:47;;;;;;;16.15;7.75;;;6.20;99.90;;;;;;5055041;28;20032;-70
2021/12/12 10:27:28;;;;;;;14.77;7.90;;;6.20;99.90;;;;;;5056387;28;20029;-71
2021/12/12 10:30:08;;;;;;;17.58;9.05;;;6.20;99.90;;;;;;5056630;28;20028;-71
2021/12/12 10:32:44;;;;;;;14.80;8.10;;;6.20;99.90;;;;;;5056241;28;20028;-70
2021/12/12 10:35:15;;;;;;;13.85;8.98;;;6.20;99.90;;;;;;5054689;28;20028;-70
2021/12/12 10:38:01;;;;;;;18.67;9.45;;;6.20;99.90;;;;;;5056390;28;20086;-70
2021/12/12 10:40:38;;;;;;;17.08;11.48;;;6.30;99.90;;;;;;5054550;28;20485;-70
2021/12/12 10:43:09;;;;;;;17.98;11.30;;;6.30;99.90;;;;;;5054903;28;20062;-70
2021/12/12 10:45:40;;;;;;;16.33;9.45;;;6.30;99.90;;;;;;5054424;28;20072;-71
2021/12/12 10:48:13;;;;;;;18.08;10.48;;;6.40;99.90;;;;;;5055675;28;20048;-71
2021/12/12 10:50:51;;;;;;;14.50;9.35;;;6.40;99.90;;;;;;5054736;28;20021;-70
2021/12/12 10:53:43;;;;;;;19.88;11.52;;;6.50;99.90;;;;;;5054392;28;20035;-70
2021/12/12 10:56:34;;;;;;;19.60;11.20;;;6.50;99.90;;;;;;5056264;28;20064;-71
2021/12/12 10:59:04;;;;;;;17.30;11.35;;;6.60;99.90;;;;;;5071268;28;20036;-71
2021/12/12 11:01:34;;;;;;;17.58;11.52;;;6.60;99.90;;;;;;5054210;28;20574;-70
2021/12/12 11:04:23;;;;;;;30.60;11.90;;;6.60;99.90;;;;;;5055715;28;20049;-72
2021/12/12 11:06:59;;;;;;;18.00;11.30;;;6.70;99.90;;;;;;5055418;28;20024;-71
2021/12/12 11:09:44;;;;;;;22.08;11.98;;;6.70;99.90;;;;;;5054333;28;20229;-71
2021/12/12 11:12:25;;;;;;;18.92;11.45;;;6.70;99.90;;;;;;5055770;28;20458;-69
2021/12/12 11:15:11;;;;;;;16.42;10.68;;;6.70;99.90;;;;;;5053907;28;20025;-70
2021/12/12 11:17:41;;;;;;;17.48;10.20;;;6.70;99.90;;;;;;5054644;28;20021;-71
2021/12/12 11:20:31;;;;;;;15.07;9.43;;;6.70;99.90;;;;;;5037170;28;20087;-71
2021/12/12 11:23:03;;;;;;;15.38;9.90;;;6.70;99.90;;;;;;5054063;28;20478;-70
2021/12/12 11:25:38;;;;;;;16.30;10.35;;;6.80;99.90;;;;;;5054302;28;20066;-71
2021/12/12 11:28:16;;;;;;;15.95;9.80;;;6.70;99.90;;;;;;5038383;28;20530;-71
2021/12/12 11:30:48;;;;;;;16.27;9.40;;;6.70;99.90;;;;;;5054339;28;20071;-70
2021/12/12 11:33:17;;;;;;;16.35;10.05;;;6.70;99.90;;;;;;5054255;28;20021;-71
2021/12/12 11:35:46;;;;;;;15.85;10.13;;;6.80;99.90;;;;;;5053927;28;20032;-70
2021/12/12 11:38:40;;;;;;;16.15;9.75;;;6.80;99.90;;;;;;5054056;28;20025;-70
2021/12/12 11:41:17;;;;;;;22.00;11.50;;;6.80;99.90;;;;;;5039520;28;20032;-71
2021/12/12 11:43:57;;;;;;;21.65;12.48;;;6.80;99.90;;;;;;5053542;28;20453;-69
2021/12/12 11:46:39;;;;;;;20.15;12.35;;;6.80;99.90;;;;;;5054129;28;20021;-69
2021/12/12 11:49:24;;;;;;;19.27;12.65;;;6.80;99.90;;;;;;5037221;28;20027;-71
2021/12/12 11:51:56;;;;;;;25.98;15.35;;;6.80;99.90;;;;;;5055009;28;20024;-71
2021/12/12 11:54:55;;;;;;;28.13;16.02;;;6.80;99.90;;;;;;5053527;28;20569;-71
2021/12/12 11:57:32;;;;;;;27.38;15.70;;;6.90;99.90;;;;;;5053070;28;20382;-71
2021/12/12 12:00:16;;;;;;;24.40;15.93;;;6.90;99.90;;;;;;5036979;28;20481;-71
2021/12/12 12:02:56;;;;;;;26.10;15.27;;;6.90;99.90;;;;;;5053537;28;20433;-71
2021/12/12 12:05:55;;;;;;;22.02;15.13;;;6.90;99.90;;;;;;5052870;28;20490;-71
2021/12/12 12:08:44;;;;;;;22.88;14.18;;;7.00;99.90;;;;;;5054090;28;20025;-71
2021/12/12 12:11:37;;;;;;;23.02;13.75;;;7.00;99.90;;;;;;5054129;28;20475;-71
2021/12/12 12:14:15;;;;;;;;;;;7.00;99.90;;;;;;5054576;28;20040;-71
2021/12/12 12:17:20;;;;;;;21.23;11.70;;;7.00;99.90;;;;;;5053066;28;19905;-71
2021/12/12 12:20:24;;;;;;;26.35;13.65;;;7.00;99.90;;;;;;5052728;28;20032;-71
2021/12/12 12:22:59;;;;;;;;;;;7.00;99.90;;;;;;5054894;28;20446;-71
2021/12/12 12:26:50;;;;;;;21.75;12.60;;;7.00;99.90;;;;;;5053112;28;20269;-71
2021/12/12 12:28:27;;;;;;;20.30;11.85;;;7.10;99.90;;;;;;5052680;28;20048;-71
2021/12/12 12:31:33;;;;;;;22.35;12.98;;;7.10;99.90;;;;;;5054110;28;20021;-71
2021/12/12 12:34:38;;;;;;;24.80;14.05;;;7.10;99.90;;;;;;5052413;28;20033;-71
2021/12/12 12:37:44;;;;;;;24.15;13.07;;;7.10;99.90;;;;;;5054233;28;20032;-71
2021/12/12 12:40:49;;;;;;;23.20;14.18;;;7.20;99.90;;;;;;5053743;28;20032;-71
2021/12/12 12:43:54;;;;;;;26.10;14.23;;;7.20;99.90;;;;;;5052291;28;20025;-70
2021/12/12 12:47:00;;;;;;;28.55;15.35;;;7.20;99.90;;;;;;5053557;28;20181;-71
2021/12/12 12:50:07;;;;;;;26.05;16.27;;;7.20;99.90;;;;;;5053454;28;20025;-71
2021/12/12 12:53:13;;;;;;;31.23;15.52;;;7.20;99.90;;;;;;5053489;28;20543;-71
2021/12/12 12:56:15;;;;;;;28.48;16.92;;;7.30;99.90;;;;;;5053281;28;20028;-71
2021/12/12 12:59:21;;;;;;;27.60;15.77;;;7.30;99.90;;;;;;5038326;28;20021;-71
2021/12/12 13:02:14;;;;;;;26.60;15.38;;;7.30;99.90;;;;;;5053253;28;20029;-71
2021/12/12 13:05:14;;;;;;;23.95;15.10;;;7.30;99.90;;;;;;5053260;28;20051;-71
2021/12/12 13:08:03;;;;;;;26.63;15.50;;;7.30;99.90;;;;;;5053864;28;20027;-71
2021/12/12 13:10:32;;;;;;;29.13;16.63;;;7.40;99.90;;;;;;5052282;28;20067;-71
2021/12/12 13:13:28;;;;;;;28.70;16.25;;;7.40;99.90;;;;;;5053567;28;20075;-70
2021/12/12 13:16:06;;;;;;;26.35;15.98;;;7.50;99.90;;;;;;5052074;28;20040;-71
2021/12/12 13:21:49;;;;;;;26.98;16.70;;;7.50;99.90;;;;;;5090905;28;20443;-71
2021/12/12 13:24:24;;;;;;;27.70;16.70;;;7.50;99.90;;;;;;5072794;28;20040;-71
2021/12/12 13:27:22;;;;;;;27.85;16.42;;;7.60;99.90;;;;;;5057024;28;20035;-71
2021/12/12 13:30:13;;;;;;;26.92;16.38;;;7.60;99.90;;;;;;5076911;28;20023;-71
2021/12/12 13:35:30;;;;;;;27.65;15.20;;;7.60;99.90;;;;;;5112256;27;20355;-71
2021/12/12 13:38:12;;;;;;;27.20;15.88;;;7.70;99.90;;;;;;5110147;28;20031;-71
2021/12/12 13:40:47;;;;;;;24.00;15.15;;;7.70;99.90;;;;;;5110078;28;20020;-71
2021/12/12 13:43:45;;;;;;;25.27;16.38;;;7.70;99.90;;;;;;5110387;28;20435;-71